Harmon, Illinois
Current Conditions -  °F | °C
As of 12:35 AM on Thursday 23 Oct 2014 (Local Time) from KSQI Reporting Station
Clear Clear  
Wind Chill:   Ceiling: Unl
Heat Index:   Visibility: 10mi
Dew Point:   Wind: 8mph
Humidity: 81%   Direction: 140°SE
Pressure: 30.22"   Gusts: NA
Location:  41.72°N, 89.55°W
Report Text: KSQI 230535Z AUTO 14007KT 10SM CLR 04/01 A3022 RMK AO1
Loading
Personal Weather Stations






























Interactive Weather Map
Tropical Storm Tracking
New forecast layout! Learn more

10-Day Weather Forecast

Advertisements
Track Severe Weather on mobile